sensor_id;sensor_type;location;lat;lon;timestamp;P1;durP1;ratioP1;P2;durP2;ratioP2
18224;SDS011;9237;48.590;8.854;2023-07-13T00:01:34;0.70;;;0.70;;
18224;SDS011;9237;48.590;8.854;2023-07-13T00:04:03;0.70;;;0.70;;
18224;SDS011;9237;48.590;8.854;2023-07-13T00:06:30;0.60;;;0.60;;
18224;SDS011;9237;48.590;8.854;2023-07-13T00:08:58;0.70;;;0.70;;
18224;SDS011;9237;48.590;8.854;2023-07-13T00:11:25;0.60;;;0.60;;
18224;SDS011;9237;48.590;8.854;2023-07-13T00:13:53;0.70;;;0.70;;
18224;SDS011;9237;48.590;8.854;2023-07-13T00:16:20;0.60;;;0.60;;
18224;SDS011;9237;48.590;8.854;2023-07-13T00:18:47;0.60;;;0.60;;
18224;SDS011;9237;48.590;8.854;2023-07-13T00:21:14;0.60;;;0.60;;
18224;SDS011;9237;48.590;8.854;2023-07-13T00:23:41;0.70;;;0.70;;
18224;SDS011;9237;48.590;8.854;2023-07-13T00:26:09;0.60;;;0.60;;
18224;SDS011;9237;48.590;8.854;2023-07-13T00:28:37;0.70;;;0.70;;
18224;SDS011;9237;48.590;8.854;2023-07-13T00:31:06;0.60;;;0.60;;
18224;SDS011;9237;48.590;8.854;2023-07-13T00:33:33;0.60;;;0.60;;
18224;SDS011;9237;48.590;8.854;2023-07-13T00:36:00;0.60;;;0.60;;
18224;SDS011;9237;48.590;8.854;2023-07-13T00:38:27;0.60;;;0.60;;
18224;SDS011;9237;48.590;8.854;2023-07-13T00:40:54;0.70;;;0.70;;
18224;SDS011;9237;48.590;8.854;2023-07-13T00:43:22;0.60;;;0.60;;
18224;SDS011;9237;48.590;8.854;2023-07-13T00:48:44;0.60;;;0.60;;
18224;SDS011;9237;48.590;8.854;2023-07-13T00:51:13;0.60;;;0.60;;
18224;SDS011;9237;48.590;8.854;2023-07-13T00:53:43;0.70;;;0.70;;
18224;SDS011;9237;48.590;8.854;2023-07-13T00:56:10;0.70;;;0.70;;
18224;SDS011;9237;48.590;8.854;2023-07-13T00:58:38;0.67;;;0.67;;
18224;SDS011;9237;48.590;8.854;2023-07-13T01:01:05;0.70;;;0.70;;
18224;SDS011;9237;48.590;8.854;2023-07-13T01:03:33;0.67;;;0.67;;
18224;SDS011;9237;48.590;8.854;2023-07-13T01:06:01;0.70;;;0.70;;
18224;SDS011;9237;48.590;8.854;2023-07-13T01:08:28;0.70;;;0.70;;
18224;SDS011;9237;48.590;8.854;2023-07-13T01:10:55;0.70;;;0.70;;
18224;SDS011;9237;48.590;8.854;2023-07-13T01:13:23;0.60;;;0.60;;
18224;SDS011;9237;48.590;8.854;2023-07-13T01:15:50;0.70;;;0.70;;
18224;SDS011;9237;48.590;8.854;2023-07-13T01:18:19;0.60;;;0.60;;
18224;SDS011;9237;48.590;8.854;2023-07-13T01:20:52;0.60;;;0.60;;
18224;SDS011;9237;48.590;8.854;2023-07-13T01:23:19;0.60;;;0.60;;
18224;SDS011;9237;48.590;8.854;2023-07-13T01:25:46;0.70;;;0.70;;
18224;SDS011;9237;48.590;8.854;2023-07-13T01:28:13;0.60;;;0.60;;
18224;SDS011;9237;48.590;8.854;2023-07-13T01:30:42;0.60;;;0.60;;
18224;SDS011;9237;48.590;8.854;2023-07-13T01:33:11;0.60;;;0.60;;
18224;SDS011;9237;48.590;8.854;2023-07-13T01:35:39;0.70;;;0.70;;
18224;SDS011;9237;48.590;8.854;2023-07-13T01:38:08;0.60;;;0.60;;
18224;SDS011;9237;48.590;8.854;2023-07-13T01:40:36;0.60;;;0.60;;
18224;SDS011;9237;48.590;8.854;2023-07-13T01:43:04;0.60;;;0.60;;
18224;SDS011;9237;48.590;8.854;2023-07-13T01:45:31;0.70;;;0.70;;
18224;SDS011;9237;48.590;8.854;2023-07-13T01:47:58;0.70;;;0.70;;
18224;SDS011;9237;48.590;8.854;2023-07-13T01:50:25;0.70;;;0.70;;
18224;SDS011;9237;48.590;8.854;2023-07-13T01:52:52;0.67;;;0.67;;
18224;SDS011;9237;48.590;8.854;2023-07-13T01:55:21;0.70;;;0.70;;
18224;SDS011;9237;48.590;8.854;2023-07-13T01:57:48;0.70;;;0.70;;
18224;SDS011;9237;48.590;8.854;2023-07-13T02:00:15;0.67;;;0.67;;
18224;SDS011;9237;48.590;8.854;2023-07-13T02:02:42;0.60;;;0.60;;
18224;SDS011;9237;48.590;8.854;2023-07-13T02:05:10;0.60;;;0.60;;
18224;SDS011;9237;48.590;8.854;2023-07-13T02:07:37;0.70;;;0.70;;
18224;SDS011;9237;48.590;8.854;2023-07-13T02:10:04;0.70;;;0.70;;
18224;SDS011;9237;48.590;8.854;2023-07-13T02:12:33;0.60;;;0.60;;
18224;SDS011;9237;48.590;8.854;2023-07-13T02:15:00;0.70;;;0.70;;
18224;SDS011;9237;48.590;8.854;2023-07-13T02:17:27;0.70;;;0.70;;
18224;SDS011;9237;48.590;8.854;2023-07-13T02:19:54;0.60;;;0.60;;
18224;SDS011;9237;48.590;8.854;2023-07-13T02:22:21;0.70;;;0.70;;
18224;SDS011;9237;48.590;8.854;2023-07-13T02:24:48;0.70;;;0.70;;
18224;SDS011;9237;48.590;8.854;2023-07-13T02:27:16;0.70;;;0.70;;
18224;SDS011;9237;48.590;8.854;2023-07-13T02:29:44;0.70;;;0.70;;
18224;SDS011;9237;48.590;8.854;2023-07-13T02:32:11;0.70;;;0.70;;
18224;SDS011;9237;48.590;8.854;2023-07-13T02:34:38;0.70;;;0.70;;
18224;SDS011;9237;48.590;8.854;2023-07-13T02:37:05;0.70;;;0.70;;
18224;SDS011;9237;48.590;8.854;2023-07-13T02:39:32;0.70;;;0.70;;
18224;SDS011;9237;48.590;8.854;2023-07-13T02:41:59;0.70;;;0.70;;
18224;SDS011;9237;48.590;8.854;2023-07-13T02:44:26;0.70;;;0.70;;
18224;SDS011;9237;48.590;8.854;2023-07-13T02:46:54;0.70;;;0.70;;
18224;SDS011;9237;48.590;8.854;2023-07-13T02:49:21;0.70;;;0.70;;
18224;SDS011;9237;48.590;8.854;2023-07-13T02:51:47;0.70;;;0.70;;
18224;SDS011;9237;48.590;8.854;2023-07-13T02:54:14;0.70;;;0.70;;
18224;SDS011;9237;48.590;8.854;2023-07-13T02:56:41;0.70;;;0.70;;
18224;SDS011;9237;48.590;8.854;2023-07-13T02:59:08;0.70;;;0.70;;
18224;SDS011;9237;48.590;8.854;2023-07-13T03:01:35;0.70;;;0.70;;
18224;SDS011;9237;48.590;8.854;2023-07-13T03:04:04;0.70;;;0.70;;
18224;SDS011;9237;48.590;8.854;2023-07-13T03:06:31;0.70;;;0.70;;
18224;SDS011;9237;48.590;8.854;2023-07-13T03:08:58;0.70;;;0.70;;
18224;SDS011;9237;48.590;8.854;2023-07-13T03:11:26;0.70;;;0.70;;
18224;SDS011;9237;48.590;8.854;2023-07-13T03:13:52;0.70;;;0.70;;
18224;SDS011;9237;48.590;8.854;2023-07-13T03:16:19;0.70;;;0.70;;
18224;SDS011;9237;48.590;8.854;2023-07-13T03:18:47;0.70;;;0.70;;
18224;SDS011;9237;48.590;8.854;2023-07-13T03:21:15;0.60;;;0.60;;
18224;SDS011;9237;48.590;8.854;2023-07-13T03:23:42;0.70;;;0.70;;
18224;SDS011;9237;48.590;8.854;2023-07-13T03:26:10;0.70;;;0.70;;
18224;SDS011;9237;48.590;8.854;2023-07-13T03:28:39;0.70;;;0.70;;
18224;SDS011;9237;48.590;8.854;2023-07-13T03:31:07;0.70;;;0.70;;
18224;SDS011;9237;48.590;8.854;2023-07-13T03:33:35;0.70;;;0.70;;
18224;SDS011;9237;48.590;8.854;2023-07-13T03:36:03;0.70;;;0.70;;
18224;SDS011;9237;48.590;8.854;2023-07-13T03:38:31;0.70;;;0.70;;
18224;SDS011;9237;48.590;8.854;2023-07-13T03:40:59;0.60;;;0.60;;
18224;SDS011;9237;48.590;8.854;2023-07-13T03:43:26;0.70;;;0.70;;
18224;SDS011;9237;48.590;8.854;2023-07-13T03:45:53;0.60;;;0.60;;
18224;SDS011;9237;48.590;8.854;2023-07-13T03:48:21;0.70;;;0.70;;
18224;SDS011;9237;48.590;8.854;2023-07-13T03:50:48;0.70;;;0.70;;
18224;SDS011;9237;48.590;8.854;2023-07-13T03:53:15;0.70;;;0.70;;
18224;SDS011;9237;48.590;8.854;2023-07-13T03:55:43;0.70;;;0.70;;
18224;SDS011;9237;48.590;8.854;2023-07-13T03:58:23;0.70;;;0.70;;
18224;SDS011;9237;48.590;8.854;2023-07-13T04:00:56;0.70;;;0.70;;
18224;SDS011;9237;48.590;8.854;2023-07-13T04:03:23;0.70;;;0.70;;
18224;SDS011;9237;48.590;8.854;2023-07-13T04:05:53;0.70;;;0.70;;
18224;SDS011;9237;48.590;8.854;2023-07-13T04:08:23;0.60;;;0.60;;
18224;SDS011;9237;48.590;8.854;2023-07-13T04:10:51;0.70;;;0.70;;
18224;SDS011;9237;48.590;8.854;2023-07-13T04:13:18;0.70;;;0.70;;
18224;SDS011;9237;48.590;8.854;2023-07-13T04:15:45;0.70;;;0.70;;
18224;SDS011;9237;48.590;8.854;2023-07-13T04:18:12;0.70;;;0.70;;
18224;SDS011;9237;48.590;8.854;2023-07-13T04:20:38;0.70;;;0.70;;
18224;SDS011;9237;48.590;8.854;2023-07-13T04:23:05;0.70;;;0.70;;
18224;SDS011;9237;48.590;8.854;2023-07-13T04:25:32;0.70;;;0.70;;
18224;SDS011;9237;48.590;8.854;2023-07-13T04:28:00;0.60;;;0.60;;
18224;SDS011;9237;48.590;8.854;2023-07-13T04:30:27;0.70;;;0.70;;
18224;SDS011;9237;48.590;8.854;2023-07-13T04:32:54;0.60;;;0.60;;
18224;SDS011;9237;48.590;8.854;2023-07-13T04:35:20;0.70;;;0.70;;
18224;SDS011;9237;48.590;8.854;2023-07-13T04:37:48;0.70;;;0.70;;
18224;SDS011;9237;48.590;8.854;2023-07-13T04:40:15;0.60;;;0.60;;
18224;SDS011;9237;48.590;8.854;2023-07-13T04:42:43;0.60;;;0.60;;
18224;SDS011;9237;48.590;8.854;2023-07-13T04:45:11;0.70;;;0.70;;
18224;SDS011;9237;48.590;8.854;2023-07-13T04:47:38;0.70;;;0.70;;
18224;SDS011;9237;48.590;8.854;2023-07-13T04:50:06;0.60;;;0.60;;
18224;SDS011;9237;48.590;8.854;2023-07-13T04:52:34;0.70;;;0.70;;
18224;SDS011;9237;48.590;8.854;2023-07-13T04:55:00;0.70;;;0.70;;
18224;SDS011;9237;48.590;8.854;2023-07-13T04:57:27;0.60;;;0.60;;
18224;SDS011;9237;48.590;8.854;2023-07-13T04:59:54;0.70;;;0.70;;
18224;SDS011;9237;48.590;8.854;2023-07-13T05:02:22;0.60;;;0.60;;
18224;SDS011;9237;48.590;8.854;2023-07-13T05:04:49;0.60;;;0.60;;
18224;SDS011;9237;48.590;8.854;2023-07-13T05:07:16;0.60;;;0.60;;
18224;SDS011;9237;48.590;8.854;2023-07-13T05:09:43;0.70;;;0.70;;
18224;SDS011;9237;48.590;8.854;2023-07-13T05:12:10;0.60;;;0.60;;
18224;SDS011;9237;48.590;8.854;2023-07-13T05:14:36;0.60;;;0.60;;
18224;SDS011;9237;48.590;8.854;2023-07-13T05:17:03;0.60;;;0.60;;
18224;SDS011;9237;48.590;8.854;2023-07-13T05:19:32;0.60;;;0.60;;
18224;SDS011;9237;48.590;8.854;2023-07-13T05:21:59;0.60;;;0.60;;
18224;SDS011;9237;48.590;8.854;2023-07-13T05:24:25;0.60;;;0.60;;
18224;SDS011;9237;48.590;8.854;2023-07-13T05:26:52;0.60;;;0.60;;
18224;SDS011;9237;48.590;8.854;2023-07-13T05:29:19;0.60;;;0.60;;
18224;SDS011;9237;48.590;8.854;2023-07-13T05:31:47;0.60;;;0.60;;
18224;SDS011;9237;48.590;8.854;2023-07-13T05:34:13;0.60;;;0.60;;
18224;SDS011;9237;48.590;8.854;2023-07-13T05:36:42;0.60;;;0.60;;
18224;SDS011;9237;48.590;8.854;2023-07-13T05:39:09;0.60;;;0.60;;
18224;SDS011;9237;48.590;8.854;2023-07-13T05:41:36;0.60;;;0.60;;
18224;SDS011;9237;48.590;8.854;2023-07-13T05:44:03;0.60;;;0.60;;
18224;SDS011;9237;48.590;8.854;2023-07-13T05:46:30;0.60;;;0.60;;
18224;SDS011;9237;48.590;8.854;2023-07-13T05:48:57;0.53;;;0.53;;
18224;SDS011;9237;48.590;8.854;2023-07-13T05:51:24;0.60;;;0.60;;
18224;SDS011;9237;48.590;8.854;2023-07-13T05:53:52;0.70;;;0.70;;
18224;SDS011;9237;48.590;8.854;2023-07-13T05:56:18;0.60;;;0.60;;
18224;SDS011;9237;48.590;8.854;2023-07-13T05:58:45;0.60;;;0.60;;
18224;SDS011;9237;48.590;8.854;2023-07-13T06:01:14;0.60;;;0.60;;
18224;SDS011;9237;48.590;8.854;2023-07-13T06:03:42;0.60;;;0.60;;
18224;SDS011;9237;48.590;8.854;2023-07-13T06:06:09;0.50;;;0.50;;
18224;SDS011;9237;48.590;8.854;2023-07-13T06:08:36;0.60;;;0.60;;
18224;SDS011;9237;48.590;8.854;2023-07-13T06:11:05;0.60;;;0.60;;
18224;SDS011;9237;48.590;8.854;2023-07-13T06:13:34;0.60;;;0.60;;
18224;SDS011;9237;48.590;8.854;2023-07-13T06:16:01;0.60;;;0.60;;
18224;SDS011;9237;48.590;8.854;2023-07-13T06:18:30;0.50;;;0.50;;
18224;SDS011;9237;48.590;8.854;2023-07-13T06:20:57;0.50;;;0.50;;
18224;SDS011;9237;48.590;8.854;2023-07-13T06:23:24;0.50;;;0.50;;
18224;SDS011;9237;48.590;8.854;2023-07-13T06:25:51;0.57;;;0.57;;
18224;SDS011;9237;48.590;8.854;2023-07-13T06:28:19;0.50;;;0.50;;
18224;SDS011;9237;48.590;8.854;2023-07-13T06:30:46;0.50;;;0.50;;
18224;SDS011;9237;48.590;8.854;2023-07-13T06:33:13;0.50;;;0.50;;
18224;SDS011;9237;48.590;8.854;2023-07-13T06:35:40;0.50;;;0.50;;
18224;SDS011;9237;48.590;8.854;2023-07-13T06:38:06;0.50;;;0.50;;
18224;SDS011;9237;48.590;8.854;2023-07-13T06:40:33;0.50;;;0.50;;
18224;SDS011;9237;48.590;8.854;2023-07-13T06:43:00;0.50;;;0.50;;
18224;SDS011;9237;48.590;8.854;2023-07-13T06:45:28;0.50;;;0.50;;
18224;SDS011;9237;48.590;8.854;2023-07-13T06:47:55;0.50;;;0.50;;
18224;SDS011;9237;48.590;8.854;2023-07-13T06:50:22;0.50;;;0.50;;
18224;SDS011;9237;48.590;8.854;2023-07-13T06:52:48;0.50;;;0.50;;
18224;SDS011;9237;48.590;8.854;2023-07-13T06:55:15;0.40;;;0.40;;
18224;SDS011;9237;48.590;8.854;2023-07-13T06:57:42;0.50;;;0.50;;
18224;SDS011;9237;48.590;8.854;2023-07-13T07:00:09;0.40;;;0.40;;
18224;SDS011;9237;48.590;8.854;2023-07-13T07:02:38;0.40;;;0.40;;
18224;SDS011;9237;48.590;8.854;2023-07-13T07:05:05;0.40;;;0.40;;
18224;SDS011;9237;48.590;8.854;2023-07-13T07:07:32;0.43;;;0.43;;
18224;SDS011;9237;48.590;8.854;2023-07-13T07:09:59;0.40;;;0.40;;
18224;SDS011;9237;48.590;8.854;2023-07-13T07:12:26;0.40;;;0.40;;
18224;SDS011;9237;48.590;8.854;2023-07-13T07:14:54;0.40;;;0.40;;
18224;SDS011;9237;48.590;8.854;2023-07-13T07:17:21;0.40;;;0.40;;
18224;SDS011;9237;48.590;8.854;2023-07-13T07:19:49;0.40;;;0.40;;
18224;SDS011;9237;48.590;8.854;2023-07-13T07:22:16;0.40;;;0.40;;
18224;SDS011;9237;48.590;8.854;2023-07-13T07:24:43;0.40;;;0.40;;
18224;SDS011;9237;48.590;8.854;2023-07-13T07:27:09;0.40;;;0.40;;
18224;SDS011;9237;48.590;8.854;2023-07-13T07:29:36;0.40;;;0.40;;
18224;SDS011;9237;48.590;8.854;2023-07-13T07:32:03;0.40;;;0.40;;
18224;SDS011;9237;48.590;8.854;2023-07-13T07:34:31;0.40;;;0.40;;
18224;SDS011;9237;48.590;8.854;2023-07-13T07:37:00;0.40;;;0.40;;
18224;SDS011;9237;48.590;8.854;2023-07-13T07:39:27;0.40;;;0.40;;
18224;SDS011;9237;48.590;8.854;2023-07-13T07:41:54;0.40;;;0.40;;
18224;SDS011;9237;48.590;8.854;2023-07-13T07:44:21;0.40;;;0.40;;
18224;SDS011;9237;48.590;8.854;2023-07-13T07:46:48;0.40;;;0.40;;
18224;SDS011;9237;48.590;8.854;2023-07-13T07:49:15;0.30;;;0.30;;
18224;SDS011;9237;48.590;8.854;2023-07-13T07:51:42;0.40;;;0.40;;
18224;SDS011;9237;48.590;8.854;2023-07-13T07:54:10;0.40;;;0.40;;
18224;SDS011;9237;48.590;8.854;2023-07-13T07:56:37;0.40;;;0.40;;
18224;SDS011;9237;48.590;8.854;2023-07-13T07:59:04;0.40;;;0.40;;
18224;SDS011;9237;48.590;8.854;2023-07-13T08:01:30;0.40;;;0.40;;
18224;SDS011;9237;48.590;8.854;2023-07-13T08:03:57;0.30;;;0.30;;
18224;SDS011;9237;48.590;8.854;2023-07-13T08:06:24;0.35;;;0.35;;
18224;SDS011;9237;48.590;8.854;2023-07-13T08:08:51;0.30;;;0.30;;
18224;SDS011;9237;48.590;8.854;2023-07-13T08:11:20;0.40;;;0.40;;
18224;SDS011;9237;48.590;8.854;2023-07-13T08:13:47;0.40;;;0.40;;
18224;SDS011;9237;48.590;8.854;2023-07-13T08:16:14;0.40;;;0.40;;
18224;SDS011;9237;48.590;8.854;2023-07-13T08:18:40;0.40;;;0.40;;
18224;SDS011;9237;48.590;8.854;2023-07-13T08:21:08;0.40;;;0.40;;
18224;SDS011;9237;48.590;8.854;2023-07-13T08:23:35;0.40;;;0.40;;
18224;SDS011;9237;48.590;8.854;2023-07-13T08:26:02;0.40;;;0.40;;
18224;SDS011;9237;48.590;8.854;2023-07-13T08:28:31;0.40;;;0.40;;
18224;SDS011;9237;48.590;8.854;2023-07-13T08:31:00;0.40;;;0.40;;
18224;SDS011;9237;48.590;8.854;2023-07-13T08:33:27;0.40;;;0.40;;
18224;SDS011;9237;48.590;8.854;2023-07-13T08:35:54;0.40;;;0.40;;
18224;SDS011;9237;48.590;8.854;2023-07-13T08:38:22;0.40;;;0.40;;
18224;SDS011;9237;48.590;8.854;2023-07-13T08:40:50;0.40;;;0.40;;
18224;SDS011;9237;48.590;8.854;2023-07-13T08:43:19;0.40;;;0.40;;
18224;SDS011;9237;48.590;8.854;2023-07-13T08:45:53;0.40;;;0.40;;
18224;SDS011;9237;48.590;8.854;2023-07-13T08:48:25;0.40;;;0.40;;
18224;SDS011;9237;48.590;8.854;2023-07-13T08:50:55;0.40;;;0.40;;
18224;SDS011;9237;48.590;8.854;2023-07-13T08:53:25;0.40;;;0.40;;
18224;SDS011;9237;48.590;8.854;2023-07-13T08:55:58;0.40;;;0.40;;
18224;SDS011;9237;48.590;8.854;2023-07-13T08:58:26;0.40;;;0.40;;
18224;SDS011;9237;48.590;8.854;2023-07-13T09:00:58;0.40;;;0.40;;
18224;SDS011;9237;48.590;8.854;2023-07-13T09:03:35;0.40;;;0.40;;
18224;SDS011;9237;48.590;8.854;2023-07-13T09:06:06;0.40;;;0.40;;
18224;SDS011;9237;48.590;8.854;2023-07-13T09:08:46;0.40;;;0.40;;
18224;SDS011;9237;48.590;8.854;2023-07-13T09:14:24;0.40;;;0.40;;
18224;SDS011;9237;48.590;8.854;2023-07-13T09:17:11;0.40;;;0.40;;
18224;SDS011;9237;48.590;8.854;2023-07-13T09:19:42;0.40;;;0.40;;
18224;SDS011;9237;48.590;8.854;2023-07-13T09:22:13;0.40;;;0.40;;
18224;SDS011;9237;48.590;8.854;2023-07-13T09:24:47;0.40;;;0.40;;
18224;SDS011;9237;48.590;8.854;2023-07-13T09:27:23;0.30;;;0.30;;
18224;SDS011;9237;48.590;8.854;2023-07-13T09:29:56;0.40;;;0.40;;
18224;SDS011;9237;48.590;8.854;2023-07-13T09:32:29;0.40;;;0.40;;
18224;SDS011;9237;48.590;8.854;2023-07-13T09:34:57;0.30;;;0.30;;
18224;SDS011;9237;48.590;8.854;2023-07-13T09:37:27;0.30;;;0.30;;
18224;SDS011;9237;48.590;8.854;2023-07-13T09:39:57;0.40;;;0.40;;
18224;SDS011;9237;48.590;8.854;2023-07-13T09:42:25;0.30;;;0.30;;
18224;SDS011;9237;48.590;8.854;2023-07-13T09:44:54;0.30;;;0.30;;
18224;SDS011;9237;48.590;8.854;2023-07-13T09:47:23;0.30;;;0.30;;
18224;SDS011;9237;48.590;8.854;2023-07-13T09:49:57;0.30;;;0.30;;
18224;SDS011;9237;48.590;8.854;2023-07-13T09:52:26;0.30;;;0.30;;
18224;SDS011;9237;48.590;8.854;2023-07-13T09:55:12;0.30;;;0.30;;
18224;SDS011;9237;48.590;8.854;2023-07-13T09:57:50;0.30;;;0.30;;
18224;SDS011;9237;48.590;8.854;2023-07-13T10:00:20;0.30;;;0.30;;
18224;SDS011;9237;48.590;8.854;2023-07-13T10:02:57;0.40;;;0.40;;
18224;SDS011;9237;48.590;8.854;2023-07-13T10:05:27;0.30;;;0.30;;
18224;SDS011;9237;48.590;8.854;2023-07-13T10:07:53;0.30;;;0.30;;
18224;SDS011;9237;48.590;8.854;2023-07-13T10:10:23;0.30;;;0.30;;
18224;SDS011;9237;48.590;8.854;2023-07-13T10:12:50;0.30;;;0.30;;
18224;SDS011;9237;48.590;8.854;2023-07-13T10:15:17;0.22;;;0.22;;
18224;SDS011;9237;48.590;8.854;2023-07-13T10:17:46;0.30;;;0.30;;
18224;SDS011;9237;48.590;8.854;2023-07-13T10:20:14;0.30;;;0.30;;
18224;SDS011;9237;48.590;8.854;2023-07-13T10:22:44;0.30;;;0.30;;
18224;SDS011;9237;48.590;8.854;2023-07-13T10:25:16;0.30;;;0.30;;
18224;SDS011;9237;48.590;8.854;2023-07-13T10:27:44;0.30;;;0.30;;
18224;SDS011;9237;48.590;8.854;2023-07-13T10:30:13;0.30;;;0.30;;
18224;SDS011;9237;48.590;8.854;2023-07-13T10:32:46;0.30;;;0.30;;
18224;SDS011;9237;48.590;8.854;2023-07-13T10:35:14;0.30;;;0.30;;
18224;SDS011;9237;48.590;8.854;2023-07-13T10:37:44;0.40;;;0.40;;
18224;SDS011;9237;48.590;8.854;2023-07-13T10:40:16;0.30;;;0.30;;
18224;SDS011;9237;48.590;8.854;2023-07-13T10:42:49;0.38;;;0.38;;
18224;SDS011;9237;48.590;8.854;2023-07-13T10:45:21;0.30;;;0.30;;
18224;SDS011;9237;48.590;8.854;2023-07-13T10:47:49;0.30;;;0.30;;
18224;SDS011;9237;48.590;8.854;2023-07-13T10:50:20;0.30;;;0.30;;
18224;SDS011;9237;48.590;8.854;2023-07-13T10:52:51;0.30;;;0.30;;
18224;SDS011;9237;48.590;8.854;2023-07-13T10:55:33;0.30;;;0.30;;
18224;SDS011;9237;48.590;8.854;2023-07-13T10:58:02;0.40;;;0.40;;
18224;SDS011;9237;48.590;8.854;2023-07-13T11:00:42;0.30;;;0.30;;
18224;SDS011;9237;48.590;8.854;2023-07-13T11:03:13;0.30;;;0.30;;
18224;SDS011;9237;48.590;8.854;2023-07-13T11:05:43;0.30;;;0.30;;
18224;SDS011;9237;48.590;8.854;2023-07-13T11:08:18;0.30;;;0.30;;
18224;SDS011;9237;48.590;8.854;2023-07-13T11:10:51;0.40;;;0.40;;
18224;SDS011;9237;48.590;8.854;2023-07-13T11:19:27;0.40;;;0.40;;
18224;SDS011;9237;48.590;8.854;2023-07-13T11:22:15;0.30;;;0.30;;
18224;SDS011;9237;48.590;8.854;2023-07-13T11:27:50;0.30;;;0.30;;
18224;SDS011;9237;48.590;8.854;2023-07-13T11:30:22;0.30;;;0.30;;
18224;SDS011;9237;48.590;8.854;2023-07-13T11:33:03;0.30;;;0.30;;
18224;SDS011;9237;48.590;8.854;2023-07-13T11:35:38;0.30;;;0.30;;
18224;SDS011;9237;48.590;8.854;2023-07-13T11:38:12;0.30;;;0.30;;
18224;SDS011;9237;48.590;8.854;2023-07-13T11:40:43;0.20;;;0.20;;
18224;SDS011;9237;48.590;8.854;2023-07-13T11:43:14;0.30;;;0.30;;
18224;SDS011;9237;48.590;8.854;2023-07-13T11:45:42;0.30;;;0.30;;
18224;SDS011;9237;48.590;8.854;2023-07-13T11:48:19;0.22;;;0.22;;
18224;SDS011;9237;48.590;8.854;2023-07-13T11:50:54;0.30;;;0.30;;
18224;SDS011;9237;48.590;8.854;2023-07-13T11:53:26;0.30;;;0.30;;
18224;SDS011;9237;48.590;8.854;2023-07-13T11:55:55;0.30;;;0.30;;
18224;SDS011;9237;48.590;8.854;2023-07-13T11:58:25;0.30;;;0.30;;
18224;SDS011;9237;48.590;8.854;2023-07-13T12:00:53;0.30;;;0.30;;
18224;SDS011;9237;48.590;8.854;2023-07-13T12:03:23;0.30;;;0.30;;
18224;SDS011;9237;48.590;8.854;2023-07-13T12:05:55;0.30;;;0.30;;
18224;SDS011;9237;48.590;8.854;2023-07-13T12:08:26;0.30;;;0.30;;
18224;SDS011;9237;48.590;8.854;2023-07-13T12:10:58;0.30;;;0.30;;
18224;SDS011;9237;48.590;8.854;2023-07-13T12:13:28;0.30;;;0.30;;
18224;SDS011;9237;48.590;8.854;2023-07-13T12:15:55;0.30;;;0.30;;
18224;SDS011;9237;48.590;8.854;2023-07-13T12:18:23;0.32;;;0.32;;
18224;SDS011;9237;48.590;8.854;2023-07-13T12:20:57;0.30;;;0.30;;
18224;SDS011;9237;48.590;8.854;2023-07-13T12:23:25;0.40;;;0.40;;
18224;SDS011;9237;48.590;8.854;2023-07-13T12:25:55;0.30;;;0.30;;
18224;SDS011;9237;48.590;8.854;2023-07-13T12:28:30;0.30;;;0.30;;
18224;SDS011;9237;48.590;8.854;2023-07-13T12:30:59;0.30;;;0.30;;
18224;SDS011;9237;48.590;8.854;2023-07-13T12:33:27;0.28;;;0.28;;
18224;SDS011;9237;48.590;8.854;2023-07-13T12:35:56;0.30;;;0.30;;
18224;SDS011;9237;48.590;8.854;2023-07-13T12:38:24;0.25;;;0.25;;
18224;SDS011;9237;48.590;8.854;2023-07-13T12:40:51;0.30;;;0.30;;
18224;SDS011;9237;48.590;8.854;2023-07-13T12:43:19;0.30;;;0.30;;
18224;SDS011;9237;48.590;8.854;2023-07-13T12:45:59;0.30;;;0.30;;
18224;SDS011;9237;48.590;8.854;2023-07-13T12:48:27;0.30;;;0.30;;
18224;SDS011;9237;48.590;8.854;2023-07-13T12:50:55;0.30;;;0.30;;
18224;SDS011;9237;48.590;8.854;2023-07-13T12:53:27;0.30;;;0.30;;
18224;SDS011;9237;48.590;8.854;2023-07-13T12:55:57;0.30;;;0.30;;
18224;SDS011;9237;48.590;8.854;2023-07-13T12:58:28;0.30;;;0.30;;
18224;SDS011;9237;48.590;8.854;2023-07-13T13:00:56;0.30;;;0.30;;
18224;SDS011;9237;48.590;8.854;2023-07-13T13:03:29;0.20;;;0.20;;
18224;SDS011;9237;48.590;8.854;2023-07-13T13:05:59;0.25;;;0.25;;
18224;SDS011;9237;48.590;8.854;2023-07-13T13:08:29;0.30;;;0.30;;
18224;SDS011;9237;48.590;8.854;2023-07-13T13:10:56;0.30;;;0.30;;
18224;SDS011;9237;48.590;8.854;2023-07-13T13:13:23;0.30;;;0.30;;
18224;SDS011;9237;48.590;8.854;2023-07-13T13:15:50;0.30;;;0.30;;
18224;SDS011;9237;48.590;8.854;2023-07-13T13:18:20;0.30;;;0.30;;
18224;SDS011;9237;48.590;8.854;2023-07-13T13:20:48;0.30;;;0.30;;
18224;SDS011;9237;48.590;8.854;2023-07-13T13:23:17;0.30;;;0.30;;
18224;SDS011;9237;48.590;8.854;2023-07-13T13:25:45;0.30;;;0.30;;
18224;SDS011;9237;48.590;8.854;2023-07-13T13:28:13;0.30;;;0.30;;
18224;SDS011;9237;48.590;8.854;2023-07-13T13:30:42;0.30;;;0.30;;
18224;SDS011;9237;48.590;8.854;2023-07-13T13:33:09;0.30;;;0.30;;
18224;SDS011;9237;48.590;8.854;2023-07-13T13:35:39;0.30;;;0.30;;
18224;SDS011;9237;48.590;8.854;2023-07-13T13:38:10;0.30;;;0.30;;
18224;SDS011;9237;48.590;8.854;2023-07-13T13:40:39;0.30;;;0.30;;
18224;SDS011;9237;48.590;8.854;2023-07-13T13:43:13;0.30;;;0.30;;
18224;SDS011;9237;48.590;8.854;2023-07-13T13:45:42;0.40;;;0.40;;
18224;SDS011;9237;48.590;8.854;2023-07-13T13:48:11;0.40;;;0.40;;
18224;SDS011;9237;48.590;8.854;2023-07-13T13:50:42;0.30;;;0.30;;
18224;SDS011;9237;48.590;8.854;2023-07-13T13:53:10;0.40;;;0.40;;
18224;SDS011;9237;48.590;8.854;2023-07-13T13:55:38;0.40;;;0.40;;
18224;SDS011;9237;48.590;8.854;2023-07-13T13:58:06;0.40;;;0.40;;
18224;SDS011;9237;48.590;8.854;2023-07-13T14:00:34;0.30;;;0.30;;
18224;SDS011;9237;48.590;8.854;2023-07-13T14:03:01;0.30;;;0.30;;
18224;SDS011;9237;48.590;8.854;2023-07-13T14:05:28;0.30;;;0.30;;
18224;SDS011;9237;48.590;8.854;2023-07-13T14:07:57;0.30;;;0.30;;
18224;SDS011;9237;48.590;8.854;2023-07-13T14:10:24;0.30;;;0.30;;
18224;SDS011;9237;48.590;8.854;2023-07-13T14:12:53;0.30;;;0.30;;
18224;SDS011;9237;48.590;8.854;2023-07-13T14:15:23;0.30;;;0.30;;
18224;SDS011;9237;48.590;8.854;2023-07-13T14:17:51;0.32;;;0.32;;
18224;SDS011;9237;48.590;8.854;2023-07-13T14:20:19;0.20;;;0.20;;
18224;SDS011;9237;48.590;8.854;2023-07-13T14:22:49;0.30;;;0.30;;
18224;SDS011;9237;48.590;8.854;2023-07-13T14:25:18;0.30;;;0.30;;
18224;SDS011;9237;48.590;8.854;2023-07-13T14:27:46;0.30;;;0.30;;
18224;SDS011;9237;48.590;8.854;2023-07-13T14:30:16;0.40;;;0.40;;
18224;SDS011;9237;48.590;8.854;2023-07-13T14:32:45;0.30;;;0.30;;
18224;SDS011;9237;48.590;8.854;2023-07-13T14:35:12;0.40;;;0.40;;
18224;SDS011;9237;48.590;8.854;2023-07-13T14:37:40;0.40;;;0.40;;
18224;SDS011;9237;48.590;8.854;2023-07-13T14:40:12;0.40;;;0.40;;
18224;SDS011;9237;48.590;8.854;2023-07-13T14:42:41;0.40;;;0.40;;
18224;SDS011;9237;48.590;8.854;2023-07-13T14:45:17;0.40;;;0.40;;
18224;SDS011;9237;48.590;8.854;2023-07-13T14:47:45;0.40;;;0.40;;
18224;SDS011;9237;48.590;8.854;2023-07-13T14:50:14;0.40;;;0.40;;
18224;SDS011;9237;48.590;8.854;2023-07-13T14:52:42;0.43;;;0.43;;
18224;SDS011;9237;48.590;8.854;2023-07-13T14:55:10;0.40;;;0.40;;
18224;SDS011;9237;48.590;8.854;2023-07-13T14:57:37;0.50;;;0.50;;
18224;SDS011;9237;48.590;8.854;2023-07-13T15:00:07;0.40;;;0.40;;
18224;SDS011;9237;48.590;8.854;2023-07-13T15:02:40;0.40;;;0.40;;
18224;SDS011;9237;48.590;8.854;2023-07-13T15:05:12;0.40;;;0.40;;
18224;SDS011;9237;48.590;8.854;2023-07-13T15:07:41;0.40;;;0.40;;
18224;SDS011;9237;48.590;8.854;2023-07-13T15:10:15;0.40;;;0.40;;
18224;SDS011;9237;48.590;8.854;2023-07-13T15:12:43;0.43;;;0.43;;
18224;SDS011;9237;48.590;8.854;2023-07-13T15:15:12;0.47;;;0.47;;
18224;SDS011;9237;48.590;8.854;2023-07-13T15:17:39;0.40;;;0.40;;
18224;SDS011;9237;48.590;8.854;2023-07-13T15:20:14;0.40;;;0.40;;
18224;SDS011;9237;48.590;8.854;2023-07-13T15:22:44;0.40;;;0.40;;
18224;SDS011;9237;48.590;8.854;2023-07-13T15:25:13;0.40;;;0.40;;